createdAt,value
2022-10-29T00:01:03.206Z,11.2
2022-10-29T00:06:03.204Z,11.2
2022-10-29T00:11:03.208Z,11.1
2022-10-29T00:16:03.211Z,11.1
2022-10-29T00:21:03.214Z,11.1
2022-10-29T00:26:03.224Z,11.0
2022-10-29T00:31:03.209Z,10.9
2022-10-29T00:36:03.176Z,11.0
2022-10-29T00:41:03.213Z,10.9
2022-10-29T00:46:03.221Z,10.9
2022-10-29T00:51:03.176Z,10.8
2022-10-29T00:56:03.229Z,10.8
2022-10-29T01:01:03.228Z,10.8
2022-10-29T01:06:03.220Z,10.9
2022-10-29T01:11:03.213Z,10.9
2022-10-29T01:16:03.226Z,11.0
2022-10-29T01:21:03.370Z,11.0
2022-10-29T01:26:03.235Z,11.0
2022-10-29T01:31:03.227Z,11.0
2022-10-29T01:36:03.222Z,11.0
2022-10-29T01:41:03.222Z,11.1
2022-10-29T01:46:03.233Z,11.1
2022-10-29T01:51:03.229Z,11.1
2022-10-29T01:56:03.228Z,11.0
2022-10-29T02:01:03.414Z,11.1
2022-10-29T02:06:03.317Z,10.8
2022-10-29T02:11:03.213Z,10.8
2022-10-29T02:16:03.262Z,10.9
2022-10-29T02:21:03.231Z,10.8
2022-10-29T02:26:03.230Z,10.7
2022-10-29T02:31:03.243Z,10.8
2022-10-29T02:36:03.403Z,10.7
2022-10-29T02:41:03.232Z,10.8
2022-10-29T02:46:03.228Z,10.7
2022-10-29T02:51:03.230Z,10.7
2022-10-29T02:56:03.161Z,10.9
2022-10-29T03:01:03.247Z,10.9
2022-10-29T03:06:03.236Z,10.9
2022-10-29T03:11:03.239Z,11.0
2022-10-29T03:16:03.238Z,11.0
2022-10-29T03:21:03.234Z,10.9
2022-10-29T03:26:03.201Z,10.9
2022-10-29T03:31:03.295Z,10.9
2022-10-29T03:36:03.374Z,10.8
2022-10-29T03:41:03.238Z,11.0
2022-10-29T03:46:03.244Z,10.9
2022-10-29T03:51:03.200Z,10.8
2022-10-29T03:56:03.238Z,10.9
2022-10-29T04:01:03.242Z,10.9
2022-10-29T04:06:03.236Z,10.9
2022-10-29T04:11:03.234Z,10.7
2022-10-29T04:16:03.242Z,10.8
2022-10-29T04:22:45.402Z,10.9
2022-10-29T04:28:28.928Z,10.8
2022-10-29T04:31:03.386Z,10.8
2022-10-29T04:36:03.166Z,10.9
2022-10-29T04:41:03.170Z,10.8
2022-10-29T04:46:03.181Z,10.9
2022-10-29T04:51:03.283Z,10.7
2022-10-29T04:56:03.177Z,10.7
2022-10-29T05:01:03.389Z,10.7
2022-10-29T05:06:03.173Z,10.7
2022-10-29T05:11:03.174Z,10.8
2022-10-29T05:16:03.280Z,10.7
2022-10-29T05:21:03.202Z,10.6
2022-10-29T05:26:03.188Z,10.6
2022-10-29T05:31:03.344Z,10.5
2022-10-29T05:36:03.178Z,10.5
2022-10-29T05:41:03.176Z,10.6
2022-10-29T05:46:03.182Z,10.7
2022-10-29T05:51:03.173Z,10.7
2022-10-29T05:56:03.197Z,10.8
2022-10-29T06:01:03.176Z,10.8
2022-10-29T06:06:03.237Z,10.6
2022-10-29T06:11:03.170Z,10.7
2022-10-29T06:16:03.189Z,10.7
2022-10-29T06:21:03.172Z,10.7
2022-10-29T06:26:03.188Z,10.9
2022-10-29T06:31:03.426Z,10.8
2022-10-29T06:36:03.180Z,10.9
2022-10-29T06:41:03.181Z,10.8
2022-10-29T06:46:03.313Z,10.8
2022-10-29T06:51:03.205Z,10.6
2022-10-29T06:56:03.205Z,10.7
2022-10-29T07:01:03.216Z,10.7
2022-10-29T07:06:03.204Z,10.9
2022-10-29T07:11:03.169Z,10.7
2022-10-29T07:16:03.188Z,10.8
2022-10-29T07:21:03.194Z,10.9
2022-10-29T07:26:03.197Z,10.8
2022-10-29T07:31:03.187Z,10.6
2022-10-29T07:36:03.188Z,10.5
2022-10-29T07:41:03.194Z,10.5
2022-10-29T07:46:03.368Z,10.7
2022-10-29T07:51:03.189Z,10.6
2022-10-29T07:56:03.194Z,10.7
2022-10-29T08:01:03.229Z,10.7
2022-10-29T08:06:03.239Z,10.8
2022-10-29T08:11:03.216Z,10.8
2022-10-29T08:16:03.181Z,10.8
2022-10-29T08:21:03.209Z,10.9
2022-10-29T08:26:03.208Z,10.9
2022-10-29T08:31:03.191Z,10.9
2022-10-29T08:36:03.259Z,10.9
2022-10-29T08:41:03.199Z,10.9
2022-10-29T08:46:03.208Z,11.0
2022-10-29T08:51:03.191Z,11.0
2022-10-29T08:56:03.201Z,11.0
2022-10-29T09:01:03.244Z,11.1
2022-10-29T09:06:03.211Z,11.1
2022-10-29T09:11:03.291Z,11.1
2022-10-29T09:16:03.201Z,11.1
2022-10-29T09:21:03.204Z,11.1
2022-10-29T09:26:03.279Z,11.1
2022-10-29T09:31:03.324Z,11.1
2022-10-29T09:36:03.204Z,11.1
2022-10-29T09:41:03.206Z,11.1
2022-10-29T09:46:03.194Z,11.1
2022-10-29T09:51:03.198Z,11.1
2022-10-29T09:56:03.232Z,11.2
2022-10-29T10:01:03.199Z,11.2
2022-10-29T10:06:03.212Z,11.2
2022-10-29T10:11:03.225Z,11.4
2022-10-29T10:16:03.282Z,11.4
2022-10-29T10:21:03.221Z,11.4
2022-10-29T10:26:04.460Z,11.5
2022-10-29T10:31:03.230Z,11.5
2022-10-29T10:36:03.204Z,11.7
2022-10-29T10:41:03.225Z,11.7
2022-10-29T10:46:03.226Z,11.7
2022-10-29T10:51:03.237Z,11.8
2022-10-29T10:56:03.229Z,11.9
2022-10-29T11:01:03.341Z,12.0
2022-10-29T11:06:03.223Z,12.0
2022-10-29T11:11:03.226Z,12.1
2022-10-29T11:16:03.249Z,12.1
2022-10-29T11:21:03.233Z,12.1
2022-10-29T11:26:03.234Z,12.2
2022-10-29T11:31:03.236Z,12.2
2022-10-29T11:36:03.228Z,12.2
2022-10-29T11:41:03.241Z,12.2
2022-10-29T11:46:03.248Z,12.3
2022-10-29T11:51:03.239Z,12.4
2022-10-29T11:56:03.236Z,12.4
2022-10-29T12:01:03.241Z,12.5
2022-10-29T12:06:03.248Z,12.5
2022-10-29T12:11:03.236Z,12.5
2022-10-29T12:21:03.238Z,12.8
2022-10-29T12:26:03.250Z,12.9
2022-10-29T12:31:03.241Z,12.9
2022-10-29T12:36:03.324Z,12.9
2022-10-29T12:41:03.263Z,12.9
2022-10-29T12:46:21.023Z,12.9
2022-10-29T12:51:03.253Z,13.0
2022-10-29T12:56:03.253Z,13.1
2022-10-29T13:01:03.347Z,13.2
2022-10-29T13:06:03.234Z,13.2
2022-10-29T13:11:03.270Z,13.3
2022-10-29T13:16:03.251Z,13.4
2022-10-29T13:21:03.264Z,13.5
2022-10-29T13:26:03.254Z,13.5
2022-10-29T13:31:03.253Z,13.4
2022-10-29T13:36:03.258Z,13.3
2022-10-29T13:41:03.251Z,13.4
2022-10-29T13:46:03.268Z,13.4
2022-10-29T13:51:03.301Z,13.7
2022-10-29T13:56:03.295Z,13.9
2022-10-29T14:01:03.331Z,13.9
2022-10-29T14:06:03.274Z,14.0
2022-10-29T14:11:03.249Z,14.0
2022-10-29T14:16:03.275Z,14.3
2022-10-29T14:21:03.260Z,14.3
2022-10-29T14:26:03.283Z,14.3
2022-10-29T14:31:03.256Z,14.3
2022-10-29T14:36:03.260Z,14.4
2022-10-29T14:41:03.263Z,14.4
2022-10-29T14:46:03.311Z,14.4
2022-10-29T14:51:03.245Z,14.4
2022-10-29T14:56:03.261Z,14.4
2022-10-29T15:01:03.299Z,14.4
2022-10-29T15:06:03.257Z,14.4
2022-10-29T15:11:03.257Z,14.4
2022-10-29T15:16:03.268Z,14.4
2022-10-29T15:21:03.251Z,14.3
2022-10-29T15:26:03.272Z,14.3
2022-10-29T15:31:03.276Z,14.4
2022-10-29T15:36:03.268Z,14.4
2022-10-29T15:41:03.265Z,14.3
2022-10-29T15:46:03.304Z,14.2
2022-10-29T15:51:03.255Z,14.2
2022-10-29T15:56:03.267Z,14.2
2022-10-29T16:01:03.285Z,14.1
2022-10-29T16:06:03.285Z,14.0
2022-10-29T16:11:03.261Z,14.0
2022-10-29T16:16:03.284Z,13.9
2022-10-29T16:21:03.282Z,13.8
2022-10-29T16:26:03.273Z,13.7
2022-10-29T16:36:03.266Z,13.6
2022-10-29T16:41:03.253Z,13.5
2022-10-29T16:46:05.474Z,13.5
2022-10-29T16:51:03.263Z,13.4
2022-10-29T16:56:03.272Z,13.4
2022-10-29T17:01:03.468Z,13.2
2022-10-29T17:06:03.262Z,13.1
2022-10-29T17:11:03.261Z,13.1
2022-10-29T17:16:03.278Z,13.0
2022-10-29T17:21:03.249Z,13.0
2022-10-29T17:26:03.283Z,12.9
2022-10-29T17:31:03.282Z,12.9
2022-10-29T17:36:03.281Z,12.7
2022-10-29T17:41:03.261Z,12.8
2022-10-29T17:46:03.289Z,12.7
2022-10-29T17:51:03.274Z,12.7
2022-10-29T17:56:03.255Z,12.6
2022-10-29T18:01:03.373Z,12.6
2022-10-29T18:06:03.265Z,12.6
2022-10-29T18:11:03.262Z,12.9
2022-10-29T18:16:03.271Z,13.4
2022-10-29T18:21:03.261Z,14.0
2022-10-29T18:26:03.274Z,14.5
2022-10-29T18:31:03.258Z,14.8
2022-10-29T18:36:03.306Z,15.0
2022-10-29T18:41:03.258Z,15.1
2022-10-29T18:46:03.267Z,15.3
2022-10-29T18:51:03.258Z,15.4
2022-10-29T18:56:03.272Z,15.4
2022-10-29T19:01:03.363Z,15.4
2022-10-29T19:06:03.282Z,15.5
2022-10-29T19:11:03.279Z,15.5
2022-10-29T19:16:03.290Z,15.6
2022-10-29T19:21:03.282Z,15.5
2022-10-29T19:26:03.266Z,15.6
2022-10-29T19:31:03.288Z,15.7
2022-10-29T19:36:03.286Z,15.7
2022-10-29T19:41:03.257Z,15.6
2022-10-29T19:46:03.339Z,15.6
2022-10-29T19:51:03.278Z,15.7
2022-10-29T19:56:03.268Z,15.7
2022-10-29T20:01:03.318Z,15.7
2022-10-29T20:06:03.273Z,15.7
2022-10-29T20:11:03.275Z,15.6
2022-10-29T20:16:03.289Z,15.6
2022-10-29T20:21:03.266Z,15.6
2022-10-29T20:26:03.274Z,15.6
2022-10-29T20:31:03.281Z,15.5
2022-10-29T20:36:03.305Z,15.5
2022-10-29T20:41:03.279Z,15.5
2022-10-29T20:46:03.293Z,15.4
2022-10-29T20:51:03.271Z,15.3
2022-10-29T20:56:03.295Z,15.2
2022-10-29T21:01:03.310Z,15.1
2022-10-29T21:06:03.279Z,15.0
2022-10-29T21:11:03.291Z,15.0
2022-10-29T21:16:03.274Z,14.9
2022-10-29T21:21:03.293Z,14.9
2022-10-29T21:26:03.286Z,14.9
2022-10-29T21:31:03.291Z,14.9
2022-10-29T21:36:03.283Z,14.7
2022-10-29T21:41:03.284Z,14.7
2022-10-29T21:46:03.327Z,14.6
2022-10-29T21:51:03.276Z,14.5
2022-10-29T21:56:03.305Z,14.5
2022-10-29T22:01:03.325Z,14.4
2022-10-29T22:06:03.321Z,14.4
2022-10-29T22:11:03.287Z,14.3
2022-10-29T22:16:03.300Z,14.2
2022-10-29T22:21:03.284Z,14.2
2022-10-29T22:26:03.298Z,14.0
2022-10-29T22:31:03.277Z,14.0
2022-10-29T22:36:03.329Z,14.0
2022-10-29T22:41:03.290Z,14.0
2022-10-29T22:46:03.306Z,13.9
2022-10-29T22:51:03.381Z,13.9
2022-10-29T22:56:03.304Z,13.9
2022-10-29T23:01:03.366Z,13.9
2022-10-29T23:06:03.312Z,13.9
2022-10-29T23:11:03.305Z,13.9
2022-10-29T23:16:03.305Z,13.9
2022-10-29T23:21:03.306Z,13.9
2022-10-29T23:26:03.316Z,13.8
2022-10-29T23:31:03.315Z,13.7
2022-10-29T23:36:03.313Z,13.7
2022-10-29T23:41:03.316Z,13.7
2022-10-29T23:46:03.317Z,13.7
2022-10-29T23:51:03.297Z,13.6
2022-10-29T23:56:03.319Z,13.6
